sensor_id;sensor_type;location;lat;lon;timestamp;P1;durP1;ratioP1;P2;durP2;ratioP2
18296;SDS011;18066;52.106;5.534;2023-05-10T00:00:30;26.73;;;17.38;;
18296;SDS011;18066;52.106;5.534;2023-05-10T00:02:57;25.27;;;16.00;;
18296;SDS011;18066;52.106;5.534;2023-05-10T00:05:24;24.58;;;17.27;;
18296;SDS011;18066;52.106;5.534;2023-05-10T00:07:51;26.05;;;17.60;;
18296;SDS011;18066;52.106;5.534;2023-05-10T00:10:18;25.13;;;16.98;;
18296;SDS011;18066;52.106;5.534;2023-05-10T00:12:46;26.65;;;17.77;;
18296;SDS011;18066;52.106;5.534;2023-05-10T00:15:13;23.63;;;16.67;;
18296;SDS011;18066;52.106;5.534;2023-05-10T00:17:40;24.55;;;17.85;;
18296;SDS011;18066;52.106;5.534;2023-05-10T00:20:07;25.10;;;17.98;;
18296;SDS011;18066;52.106;5.534;2023-05-10T00:22:34;24.33;;;18.20;;
18296;SDS011;18066;52.106;5.534;2023-05-10T00:25:01;23.80;;;17.35;;
18296;SDS011;18066;52.106;5.534;2023-05-10T00:27:28;25.20;;;17.15;;
18296;SDS011;18066;52.106;5.534;2023-05-10T00:29:56;27.70;;;18.20;;
18296;SDS011;18066;52.106;5.534;2023-05-10T00:32:23;28.30;;;19.08;;
18296;SDS011;18066;52.106;5.534;2023-05-10T00:34:50;29.17;;;19.25;;
18296;SDS011;18066;52.106;5.534;2023-05-10T00:37:17;30.55;;;20.10;;
18296;SDS011;18066;52.106;5.534;2023-05-10T00:39:44;30.98;;;19.38;;
18296;SDS011;18066;52.106;5.534;2023-05-10T00:42:10;42.60;;;23.88;;
18296;SDS011;18066;52.106;5.534;2023-05-10T00:44:37;41.17;;;24.05;;
18296;SDS011;18066;52.106;5.534;2023-05-10T00:47:06;43.22;;;24.52;;
18296;SDS011;18066;52.106;5.534;2023-05-10T00:49:33;45.13;;;25.70;;
18296;SDS011;18066;52.106;5.534;2023-05-10T00:52:00;40.92;;;24.42;;
18296;SDS011;18066;52.106;5.534;2023-05-10T00:54:28;40.50;;;24.73;;
18296;SDS011;18066;52.106;5.534;2023-05-10T00:56:55;44.88;;;26.65;;
18296;SDS011;18066;52.106;5.534;2023-05-10T00:59:22;46.58;;;27.08;;
18296;SDS011;18066;52.106;5.534;2023-05-10T01:01:49;49.90;;;27.50;;
18296;SDS011;18066;52.106;5.534;2023-05-10T01:04:18;51.67;;;28.92;;
18296;SDS011;18066;52.106;5.534;2023-05-10T01:06:50;52.33;;;29.42;;
18296;SDS011;18066;52.106;5.534;2023-05-10T01:09:18;52.92;;;29.02;;
18296;SDS011;18066;52.106;5.534;2023-05-10T01:11:45;54.08;;;29.02;;
18296;SDS011;18066;52.106;5.534;2023-05-10T01:14:13;62.15;;;32.05;;
18296;SDS011;18066;52.106;5.534;2023-05-10T01:16:40;57.60;;;30.33;;
18296;SDS011;18066;52.106;5.534;2023-05-10T01:19:10;61.78;;;31.98;;
18296;SDS011;18066;52.106;5.534;2023-05-10T01:21:45;53.92;;;28.65;;
18296;SDS011;18066;52.106;5.534;2023-05-10T01:24:25;58.00;;;29.77;;
18296;SDS011;18066;52.106;5.534;2023-05-10T01:27:19;63.05;;;30.42;;
18296;SDS011;18066;52.106;5.534;2023-05-10T01:30:05;61.95;;;32.40;;
18296;SDS011;18066;52.106;5.534;2023-05-10T01:32:47;61.15;;;30.35;;
18296;SDS011;18066;52.106;5.534;2023-05-10T01:35:25;59.80;;;29.57;;
18296;SDS011;18066;52.106;5.534;2023-05-10T01:38:04;63.95;;;30.98;;
18296;SDS011;18066;52.106;5.534;2023-05-10T01:40:39;67.82;;;32.33;;
18296;SDS011;18066;52.106;5.534;2023-05-10T01:43:15;59.92;;;31.15;;
18296;SDS011;18066;52.106;5.534;2023-05-10T01:45:49;64.72;;;31.02;;
18296;SDS011;18066;52.106;5.534;2023-05-10T01:48:24;63.20;;;30.02;;
18296;SDS011;18066;52.106;5.534;2023-05-10T01:50:53;68.90;;;32.42;;
18296;SDS011;18066;52.106;5.534;2023-05-10T01:53:21;66.10;;;31.17;;
18296;SDS011;18066;52.106;5.534;2023-05-10T01:55:51;61.88;;;30.63;;
18296;SDS011;18066;52.106;5.534;2023-05-10T01:58:21;63.80;;;30.48;;
18296;SDS011;18066;52.106;5.534;2023-05-10T02:00:51;67.85;;;31.00;;
18296;SDS011;18066;52.106;5.534;2023-05-10T02:03:20;62.85;;;30.00;;
18296;SDS011;18066;52.106;5.534;2023-05-10T02:05:50;65.75;;;31.65;;
18296;SDS011;18066;52.106;5.534;2023-05-10T02:08:19;62.63;;;31.45;;
18296;SDS011;18066;52.106;5.534;2023-05-10T02:10:48;61.30;;;30.17;;
18296;SDS011;18066;52.106;5.534;2023-05-10T02:13:17;60.25;;;29.48;;
18296;SDS011;18066;52.106;5.534;2023-05-10T02:15:45;62.42;;;30.33;;
18296;SDS011;18066;52.106;5.534;2023-05-10T02:18:14;61.67;;;31.33;;
18296;SDS011;18066;52.106;5.534;2023-05-10T02:20:42;60.83;;;30.67;;
18296;SDS011;18066;52.106;5.534;2023-05-10T02:23:11;64.30;;;30.10;;
18296;SDS011;18066;52.106;5.534;2023-05-10T02:25:39;63.50;;;30.47;;
18296;SDS011;18066;52.106;5.534;2023-05-10T02:28:07;64.30;;;31.20;;
18296;SDS011;18066;52.106;5.534;2023-05-10T02:30:34;63.63;;;30.95;;
18296;SDS011;18066;52.106;5.534;2023-05-10T02:33:02;61.28;;;29.23;;
18296;SDS011;18066;52.106;5.534;2023-05-10T02:35:31;64.68;;;30.45;;
18296;SDS011;18066;52.106;5.534;2023-05-10T02:37:59;63.00;;;28.93;;
18296;SDS011;18066;52.106;5.534;2023-05-10T02:40:28;62.17;;;30.17;;
18296;SDS011;18066;52.106;5.534;2023-05-10T02:42:56;64.43;;;31.63;;
18296;SDS011;18066;52.106;5.534;2023-05-10T02:45:25;62.58;;;30.17;;
18296;SDS011;18066;52.106;5.534;2023-05-10T02:47:55;70.05;;;30.92;;
18296;SDS011;18066;52.106;5.534;2023-05-10T02:50:22;68.30;;;31.05;;
18296;SDS011;18066;52.106;5.534;2023-05-10T02:52:54;58.08;;;29.38;;
18296;SDS011;18066;52.106;5.534;2023-05-10T02:55:27;63.88;;;31.20;;
18296;SDS011;18066;52.106;5.534;2023-05-10T02:58:03;65.90;;;30.35;;
18296;SDS011;18066;52.106;5.534;2023-05-10T03:00:30;67.70;;;33.22;;
18296;SDS011;18066;52.106;5.534;2023-05-10T03:02:57;66.75;;;30.67;;
18296;SDS011;18066;52.106;5.534;2023-05-10T03:05:25;66.22;;;31.67;;
18296;SDS011;18066;52.106;5.534;2023-05-10T03:07:52;77.63;;;33.00;;
18296;SDS011;18066;52.106;5.534;2023-05-10T03:10:19;77.53;;;32.57;;
18296;SDS011;18066;52.106;5.534;2023-05-10T03:13:01;65.88;;;32.17;;
18296;SDS011;18066;52.106;5.534;2023-05-10T03:15:42;72.03;;;31.87;;
18296;SDS011;18066;52.106;5.534;2023-05-10T03:18:18;75.30;;;33.47;;
18296;SDS011;18066;52.106;5.534;2023-05-10T03:20:49;74.78;;;33.85;;
18296;SDS011;18066;52.106;5.534;2023-05-10T03:23:20;78.78;;;36.40;;
18296;SDS011;18066;52.106;5.534;2023-05-10T03:25:52;80.87;;;35.30;;
18296;SDS011;18066;52.106;5.534;2023-05-10T03:28:21;76.83;;;34.17;;
18296;SDS011;18066;52.106;5.534;2023-05-10T03:30:52;83.30;;;36.88;;
18296;SDS011;18066;52.106;5.534;2023-05-10T03:33:19;97.97;;;38.70;;
18296;SDS011;18066;52.106;5.534;2023-05-10T03:35:46;102.77;;;39.70;;
18296;SDS011;18066;52.106;5.534;2023-05-10T03:38:13;102.77;;;38.60;;
18296;SDS011;18066;52.106;5.534;2023-05-10T03:40:40;103.60;;;39.87;;
18296;SDS011;18066;52.106;5.534;2023-05-10T03:43:07;107.23;;;39.10;;
18296;SDS011;18066;52.106;5.534;2023-05-10T03:45:35;110.93;;;40.70;;
18296;SDS011;18066;52.106;5.534;2023-05-10T03:48:02;109.17;;;37.80;;
18296;SDS011;18066;52.106;5.534;2023-05-10T03:50:29;106.60;;;38.03;;
18296;SDS011;18066;52.106;5.534;2023-05-10T03:52:55;111.87;;;39.80;;
18296;SDS011;18066;52.106;5.534;2023-05-10T03:55:23;120.80;;;40.37;;
18296;SDS011;18066;52.106;5.534;2023-05-10T03:57:49;114.50;;;39.43;;
18296;SDS011;18066;52.106;5.534;2023-05-10T04:00:18;103.17;;;38.30;;
18296;SDS011;18066;52.106;5.534;2023-05-10T04:02:47;104.63;;;38.07;;
18296;SDS011;18066;52.106;5.534;2023-05-10T04:05:14;106.53;;;37.23;;
18296;SDS011;18066;52.106;5.534;2023-05-10T04:07:41;102.70;;;37.23;;
18296;SDS011;18066;52.106;5.534;2023-05-10T04:10:09;104.63;;;34.63;;
18296;SDS011;18066;52.106;5.534;2023-05-10T04:12:36;98.97;;;37.00;;
18296;SDS011;18066;52.106;5.534;2023-05-10T04:15:03;103.57;;;37.27;;
18296;SDS011;18066;52.106;5.534;2023-05-10T04:17:31;87.23;;;34.37;;
18296;SDS011;18066;52.106;5.534;2023-05-10T04:19:59;93.00;;;32.83;;
18296;SDS011;18066;52.106;5.534;2023-05-10T04:22:26;87.80;;;33.88;;
18296;SDS011;18066;52.106;5.534;2023-05-10T04:24:54;91.67;;;32.97;;
18296;SDS011;18066;52.106;5.534;2023-05-10T04:27:20;89.67;;;34.13;;
18296;SDS011;18066;52.106;5.534;2023-05-10T04:29:48;87.43;;;33.47;;
18296;SDS011;18066;52.106;5.534;2023-05-10T04:32:15;83.03;;;32.17;;
18296;SDS011;18066;52.106;5.534;2023-05-10T04:34:42;89.10;;;32.87;;
18296;SDS011;18066;52.106;5.534;2023-05-10T04:37:10;79.63;;;30.77;;
18296;SDS011;18066;52.106;5.534;2023-05-10T04:39:37;86.47;;;31.40;;
18296;SDS011;18066;52.106;5.534;2023-05-10T04:42:04;85.47;;;32.93;;
18296;SDS011;18066;52.106;5.534;2023-05-10T04:44:32;82.57;;;31.90;;
18296;SDS011;18066;52.106;5.534;2023-05-10T04:46:59;89.40;;;32.23;;
18296;SDS011;18066;52.106;5.534;2023-05-10T04:49:27;73.13;;;30.87;;
18296;SDS011;18066;52.106;5.534;2023-05-10T04:51:54;83.13;;;30.90;;
18296;SDS011;18066;52.106;5.534;2023-05-10T04:54:22;76.32;;;31.67;;
18296;SDS011;18066;52.106;5.534;2023-05-10T04:56:49;78.43;;;30.23;;
18296;SDS011;18066;52.106;5.534;2023-05-10T04:59:16;84.78;;;31.25;;
18296;SDS011;18066;52.106;5.534;2023-05-10T05:01:43;85.13;;;32.53;;
18296;SDS011;18066;52.106;5.534;2023-05-10T05:04:10;80.10;;;30.73;;
18296;SDS011;18066;52.106;5.534;2023-05-10T05:06:37;82.32;;;31.75;;
18296;SDS011;18066;52.106;5.534;2023-05-10T05:09:04;85.63;;;31.27;;
18296;SDS011;18066;52.106;5.534;2023-05-10T05:11:32;80.93;;;34.53;;
18296;SDS011;18066;52.106;5.534;2023-05-10T05:13:59;85.13;;;33.73;;
18296;SDS011;18066;52.106;5.534;2023-05-10T05:16:25;90.53;;;34.10;;
18296;SDS011;18066;52.106;5.534;2023-05-10T05:18:52;89.60;;;33.63;;
18296;SDS011;18066;52.106;5.534;2023-05-10T05:21:19;80.40;;;32.92;;
18296;SDS011;18066;52.106;5.534;2023-05-10T05:23:47;87.35;;;34.13;;
18296;SDS011;18066;52.106;5.534;2023-05-10T05:26:14;85.50;;;33.93;;
18296;SDS011;18066;52.106;5.534;2023-05-10T05:28:42;82.45;;;33.38;;
18296;SDS011;18066;52.106;5.534;2023-05-10T05:31:09;83.85;;;34.97;;
18296;SDS011;18066;52.106;5.534;2023-05-10T05:33:36;89.68;;;33.17;;
18296;SDS011;18066;52.106;5.534;2023-05-10T05:36:03;89.78;;;34.38;;
18296;SDS011;18066;52.106;5.534;2023-05-10T05:38:31;91.22;;;35.00;;
18296;SDS011;18066;52.106;5.534;2023-05-10T05:40:58;96.87;;;36.80;;
18296;SDS011;18066;52.106;5.534;2023-05-10T05:43:25;95.07;;;36.65;;
18296;SDS011;18066;52.106;5.534;2023-05-10T05:45:53;103.55;;;33.65;;
18296;SDS011;18066;52.106;5.534;2023-05-10T05:48:22;99.90;;;34.87;;
18296;SDS011;18066;52.106;5.534;2023-05-10T05:50:49;107.97;;;36.97;;
18296;SDS011;18066;52.106;5.534;2023-05-10T05:53:16;101.00;;;36.83;;
18296;SDS011;18066;52.106;5.534;2023-05-10T05:55:50;88.57;;;34.57;;
18296;SDS011;18066;52.106;5.534;2023-05-10T05:58:18;100.87;;;36.17;;
18296;SDS011;18066;52.106;5.534;2023-05-10T06:00:45;123.93;;;37.42;;
18296;SDS011;18066;52.106;5.534;2023-05-10T06:03:13;105.22;;;37.05;;
18296;SDS011;18066;52.106;5.534;2023-05-10T06:05:40;96.10;;;35.33;;
18296;SDS011;18066;52.106;5.534;2023-05-10T06:08:07;110.43;;;37.17;;
18296;SDS011;18066;52.106;5.534;2023-05-10T06:10:34;97.83;;;35.87;;
18296;SDS011;18066;52.106;5.534;2023-05-10T06:13:00;108.97;;;39.63;;
18296;SDS011;18066;52.106;5.534;2023-05-10T06:15:27;103.13;;;37.70;;
18296;SDS011;18066;52.106;5.534;2023-05-10T06:17:54;103.13;;;39.23;;
18296;SDS011;18066;52.106;5.534;2023-05-10T06:20:23;104.50;;;36.87;;
18296;SDS011;18066;52.106;5.534;2023-05-10T06:22:50;89.03;;;38.07;;
18296;SDS011;18066;52.106;5.534;2023-05-10T06:25:16;97.90;;;37.33;;
18296;SDS011;18066;52.106;5.534;2023-05-10T06:27:43;99.53;;;37.67;;
18296;SDS011;18066;52.106;5.534;2023-05-10T06:30:11;89.53;;;34.23;;
18296;SDS011;18066;52.106;5.534;2023-05-10T06:32:40;85.37;;;34.50;;
18296;SDS011;18066;52.106;5.534;2023-05-10T06:35:09;87.40;;;35.35;;
18296;SDS011;18066;52.106;5.534;2023-05-10T06:37:37;70.07;;;32.67;;
18296;SDS011;18066;52.106;5.534;2023-05-10T06:40:05;76.30;;;32.13;;
18296;SDS011;18066;52.106;5.534;2023-05-10T06:42:32;71.70;;;33.08;;
18296;SDS011;18066;52.106;5.534;2023-05-10T06:44:59;75.35;;;32.38;;
18296;SDS011;18066;52.106;5.534;2023-05-10T06:47:26;67.68;;;30.70;;
18296;SDS011;18066;52.106;5.534;2023-05-10T06:49:53;63.93;;;29.40;;
18296;SDS011;18066;52.106;5.534;2023-05-10T06:52:20;68.83;;;31.33;;
18296;SDS011;18066;52.106;5.534;2023-05-10T06:54:49;74.03;;;30.90;;
18296;SDS011;18066;52.106;5.534;2023-05-10T06:57:16;69.65;;;32.25;;
18296;SDS011;18066;52.106;5.534;2023-05-10T06:59:43;65.03;;;29.30;;
18296;SDS011;18066;52.106;5.534;2023-05-10T07:02:10;55.47;;;26.92;;
18296;SDS011;18066;52.106;5.534;2023-05-10T07:04:37;57.55;;;27.58;;
18296;SDS011;18066;52.106;5.534;2023-05-10T07:07:04;57.47;;;26.38;;
18296;SDS011;18066;52.106;5.534;2023-05-10T07:09:30;53.08;;;26.20;;
18296;SDS011;18066;52.106;5.534;2023-05-10T07:11:59;46.85;;;24.55;;
18296;SDS011;18066;52.106;5.534;2023-05-10T07:14:26;60.35;;;24.83;;
18296;SDS011;18066;52.106;5.534;2023-05-10T07:16:53;48.67;;;22.92;;
18296;SDS011;18066;52.106;5.534;2023-05-10T07:19:20;47.38;;;22.67;;
18296;SDS011;18066;52.106;5.534;2023-05-10T07:21:47;51.05;;;23.08;;
18296;SDS011;18066;52.106;5.534;2023-05-10T07:24:14;45.85;;;22.63;;
18296;SDS011;18066;52.106;5.534;2023-05-10T07:26:41;42.07;;;19.83;;
18296;SDS011;18066;52.106;5.534;2023-05-10T07:29:09;43.17;;;19.40;;
18296;SDS011;18066;52.106;5.534;2023-05-10T07:31:36;33.05;;;18.05;;
18296;SDS011;18066;52.106;5.534;2023-05-10T07:34:02;33.35;;;17.90;;
18296;SDS011;18066;52.106;5.534;2023-05-10T07:36:29;35.67;;;17.58;;
18296;SDS011;18066;52.106;5.534;2023-05-10T07:38:57;33.58;;;16.38;;
18296;SDS011;18066;52.106;5.534;2023-05-10T07:41:24;27.73;;;14.57;;
18296;SDS011;18066;52.106;5.534;2023-05-10T07:43:51;25.35;;;13.95;;
18296;SDS011;18066;52.106;5.534;2023-05-10T07:46:19;24.98;;;13.63;;
18296;SDS011;18066;52.106;5.534;2023-05-10T07:48:45;25.50;;;13.60;;
18296;SDS011;18066;52.106;5.534;2023-05-10T07:51:12;23.08;;;13.45;;
18296;SDS011;18066;52.106;5.534;2023-05-10T07:53:39;24.17;;;13.17;;
18296;SDS011;18066;52.106;5.534;2023-05-10T07:56:19;22.88;;;13.05;;
18296;SDS011;18066;52.106;5.534;2023-05-10T07:58:47;20.43;;;12.30;;
18296;SDS011;18066;52.106;5.534;2023-05-10T08:01:14;21.02;;;11.65;;
18296;SDS011;18066;52.106;5.534;2023-05-10T08:03:42;18.25;;;11.48;;
18296;SDS011;18066;52.106;5.534;2023-05-10T08:06:09;21.02;;;12.40;;
18296;SDS011;18066;52.106;5.534;2023-05-10T08:08:36;20.23;;;12.20;;
18296;SDS011;18066;52.106;5.534;2023-05-10T08:11:03;22.60;;;12.75;;
18296;SDS011;18066;52.106;5.534;2023-05-10T08:13:30;23.65;;;13.02;;
18296;SDS011;18066;52.106;5.534;2023-05-10T08:15:57;22.35;;;13.07;;
18296;SDS011;18066;52.106;5.534;2023-05-10T08:18:24;21.60;;;13.20;;
18296;SDS011;18066;52.106;5.534;2023-05-10T08:20:52;21.25;;;12.88;;
18296;SDS011;18066;52.106;5.534;2023-05-10T08:23:20;21.00;;;12.27;;
18296;SDS011;18066;52.106;5.534;2023-05-10T08:25:46;19.13;;;11.57;;
18296;SDS011;18066;52.106;5.534;2023-05-10T08:28:13;18.45;;;11.48;;
18296;SDS011;18066;52.106;5.534;2023-05-10T08:30:40;16.38;;;10.70;;
18296;SDS011;18066;52.106;5.534;2023-05-10T08:33:07;20.55;;;11.50;;
18296;SDS011;18066;52.106;5.534;2023-05-10T08:35:34;16.67;;;11.02;;
18296;SDS011;18066;52.106;5.534;2023-05-10T08:38:02;16.35;;;10.05;;
18296;SDS011;18066;52.106;5.534;2023-05-10T08:40:29;17.15;;;10.95;;
18296;SDS011;18066;52.106;5.534;2023-05-10T08:42:59;20.58;;;10.07;;
18296;SDS011;18066;52.106;5.534;2023-05-10T08:45:31;18.38;;;10.80;;
18296;SDS011;18066;52.106;5.534;2023-05-10T08:48:02;17.58;;;10.50;;
18296;SDS011;18066;52.106;5.534;2023-05-10T08:50:31;18.65;;;12.32;;
18296;SDS011;18066;52.106;5.534;2023-05-10T08:52:59;17.08;;;10.23;;
18296;SDS011;18066;52.106;5.534;2023-05-10T08:55:30;22.52;;;11.80;;
18296;SDS011;18066;52.106;5.534;2023-05-10T08:57:58;18.85;;;11.27;;
18296;SDS011;18066;52.106;5.534;2023-05-10T09:00:25;22.67;;;13.85;;
18296;SDS011;18066;52.106;5.534;2023-05-10T09:02:52;18.40;;;11.80;;
18296;SDS011;18066;52.106;5.534;2023-05-10T09:05:20;20.92;;;12.80;;
18296;SDS011;18066;52.106;5.534;2023-05-10T09:07:47;20.27;;;12.93;;
18296;SDS011;18066;52.106;5.534;2023-05-10T09:10:15;25.35;;;13.43;;
18296;SDS011;18066;52.106;5.534;2023-05-10T09:12:42;20.15;;;13.07;;
18296;SDS011;18066;52.106;5.534;2023-05-10T09:15:11;19.48;;;13.13;;
18296;SDS011;18066;52.106;5.534;2023-05-10T09:17:41;22.73;;;13.85;;
18296;SDS011;18066;52.106;5.534;2023-05-10T09:20:10;20.00;;;13.48;;
18296;SDS011;18066;52.106;5.534;2023-05-10T09:22:36;23.70;;;14.02;;
18296;SDS011;18066;52.106;5.534;2023-05-10T09:25:04;21.40;;;13.25;;
18296;SDS011;18066;52.106;5.534;2023-05-10T09:27:34;20.58;;;12.43;;
18296;SDS011;18066;52.106;5.534;2023-05-10T09:30:01;20.00;;;12.63;;
18296;SDS011;18066;52.106;5.534;2023-05-10T09:32:38;28.25;;;15.02;;
18296;SDS011;18066;52.106;5.534;2023-05-10T09:35:06;20.83;;;14.15;;
18296;SDS011;18066;52.106;5.534;2023-05-10T09:37:34;22.83;;;12.88;;
18296;SDS011;18066;52.106;5.534;2023-05-10T09:40:03;19.15;;;11.93;;
18296;SDS011;18066;52.106;5.534;2023-05-10T09:42:33;15.40;;;9.50;;
18296;SDS011;18066;52.106;5.534;2023-05-10T09:45:01;14.10;;;10.32;;
18296;SDS011;18066;52.106;5.534;2023-05-10T09:47:31;14.50;;;10.13;;
18296;SDS011;18066;52.106;5.534;2023-05-10T09:49:58;15.38;;;9.98;;
18296;SDS011;18066;52.106;5.534;2023-05-10T09:52:28;21.92;;;10.05;;
18296;SDS011;18066;52.106;5.534;2023-05-10T09:54:55;12.70;;;8.43;;
18296;SDS011;18066;52.106;5.534;2023-05-10T09:57:22;12.13;;;8.60;;
18296;SDS011;18066;52.106;5.534;2023-05-10T09:59:51;11.50;;;8.48;;
18296;SDS011;18066;52.106;5.534;2023-05-10T10:02:19;15.15;;;8.50;;
18296;SDS011;18066;52.106;5.534;2023-05-10T10:04:48;13.02;;;8.68;;
18296;SDS011;18066;52.106;5.534;2023-05-10T10:07:17;12.32;;;8.88;;
18296;SDS011;18066;52.106;5.534;2023-05-10T10:09:50;8.45;;;6.47;;
18296;SDS011;18066;52.106;5.534;2023-05-10T10:12:17;10.95;;;7.32;;
18296;SDS011;18066;52.106;5.534;2023-05-10T10:14:45;8.98;;;6.85;;
18296;SDS011;18066;52.106;5.534;2023-05-10T10:17:14;9.57;;;7.07;;
18296;SDS011;18066;52.106;5.534;2023-05-10T10:19:41;11.13;;;7.90;;
18296;SDS011;18066;52.106;5.534;2023-05-10T10:22:08;12.68;;;7.70;;
18296;SDS011;18066;52.106;5.534;2023-05-10T10:24:37;9.77;;;7.00;;
18296;SDS011;18066;52.106;5.534;2023-05-10T10:27:09;10.63;;;6.38;;
18296;SDS011;18066;52.106;5.534;2023-05-10T10:29:47;8.55;;;6.65;;
18296;SDS011;18066;52.106;5.534;2023-05-10T10:32:24;11.70;;;7.68;;
18296;SDS011;18066;52.106;5.534;2023-05-10T10:34:56;10.63;;;7.63;;
18296;SDS011;18066;52.106;5.534;2023-05-10T10:37:23;11.02;;;7.18;;
18296;SDS011;18066;52.106;5.534;2023-05-10T10:42:48;8.82;;;5.80;;
18296;SDS011;18066;52.106;5.534;2023-05-10T10:45:15;9.02;;;7.07;;
18296;SDS011;18066;52.106;5.534;2023-05-10T10:47:43;8.50;;;6.93;;
18296;SDS011;18066;52.106;5.534;2023-05-10T10:50:11;14.57;;;7.70;;
18296;SDS011;18066;52.106;5.534;2023-05-10T10:52:38;11.55;;;8.00;;
18296;SDS011;18066;52.106;5.534;2023-05-10T10:55:07;9.43;;;7.70;;
18296;SDS011;18066;52.106;5.534;2023-05-10T10:57:42;10.63;;;6.97;;
18296;SDS011;18066;52.106;5.534;2023-05-10T11:00:21;9.30;;;6.97;;
18296;SDS011;18066;52.106;5.534;2023-05-10T11:02:51;10.52;;;7.43;;
18296;SDS011;18066;52.106;5.534;2023-05-10T11:05:33;11.43;;;7.55;;
18296;SDS011;18066;52.106;5.534;2023-05-10T11:08:06;11.90;;;7.90;;
18296;SDS011;18066;52.106;5.534;2023-05-10T11:10:35;12.30;;;8.05;;
18296;SDS011;18066;52.106;5.534;2023-05-10T11:13:02;13.13;;;8.43;;
18296;SDS011;18066;52.106;5.534;2023-05-10T11:15:30;11.70;;;7.75;;
18296;SDS011;18066;52.106;5.534;2023-05-10T11:17:59;12.48;;;7.75;;
18296;SDS011;18066;52.106;5.534;2023-05-10T11:20:42;9.10;;;6.57;;
18296;SDS011;18066;52.106;5.534;2023-05-10T11:23:12;9.75;;;7.60;;
18296;SDS011;18066;52.106;5.534;2023-05-10T11:25:41;12.18;;;7.85;;
18296;SDS011;18066;52.106;5.534;2023-05-10T11:28:09;13.18;;;7.65;;
18296;SDS011;18066;52.106;5.534;2023-05-10T11:30:36;11.35;;;7.68;;
18296;SDS011;18066;52.106;5.534;2023-05-10T11:33:06;12.32;;;8.07;;
18296;SDS011;18066;52.106;5.534;2023-05-10T11:35:36;10.45;;;7.18;;
18296;SDS011;18066;52.106;5.534;2023-05-10T11:38:05;8.95;;;6.95;;
18296;SDS011;18066;52.106;5.534;2023-05-10T11:40:32;10.18;;;6.78;;
18296;SDS011;18066;52.106;5.534;2023-05-10T11:43:00;9.50;;;5.65;;
18296;SDS011;18066;52.106;5.534;2023-05-10T11:45:26;9.10;;;6.38;;
18296;SDS011;18066;52.106;5.534;2023-05-10T11:47:54;10.95;;;7.45;;
18296;SDS011;18066;52.106;5.534;2023-05-10T11:50:22;10.43;;;6.70;;
18296;SDS011;18066;52.106;5.534;2023-05-10T11:52:51;10.60;;;7.45;;
18296;SDS011;18066;52.106;5.534;2023-05-10T11:55:18;9.43;;;6.60;;
18296;SDS011;18066;52.106;5.534;2023-05-10T11:57:45;10.18;;;7.05;;
18296;SDS011;18066;52.106;5.534;2023-05-10T12:00:12;8.32;;;6.70;;
18296;SDS011;18066;52.106;5.534;2023-05-10T12:02:39;10.68;;;7.07;;
18296;SDS011;18066;52.106;5.534;2023-05-10T12:05:06;9.25;;;6.38;;
18296;SDS011;18066;52.106;5.534;2023-05-10T12:07:35;11.88;;;6.32;;
18296;SDS011;18066;52.106;5.534;2023-05-10T12:10:04;8.40;;;5.90;;
18296;SDS011;18066;52.106;5.534;2023-05-10T12:12:36;7.88;;;5.90;;
18296;SDS011;18066;52.106;5.534;2023-05-10T12:15:04;7.75;;;5.90;;
18296;SDS011;18066;52.106;5.534;2023-05-10T12:17:37;9.88;;;5.53;;
18296;SDS011;18066;52.106;5.534;2023-05-10T12:20:14;8.88;;;5.50;;
18296;SDS011;18066;52.106;5.534;2023-05-10T12:22:47;7.40;;;5.18;;
18296;SDS011;18066;52.106;5.534;2023-05-10T12:25:16;9.45;;;5.90;;
18296;SDS011;18066;52.106;5.534;2023-05-10T12:27:53;7.63;;;5.35;;
18296;SDS011;18066;52.106;5.534;2023-05-10T12:30:21;8.00;;;5.47;;
18296;SDS011;18066;52.106;5.534;2023-05-10T12:32:49;9.38;;;5.78;;
18296;SDS011;18066;52.106;5.534;2023-05-10T12:35:16;7.47;;;5.13;;
18296;SDS011;18066;52.106;5.534;2023-05-10T12:37:47;7.70;;;5.75;;
18296;SDS011;18066;52.106;5.534;2023-05-10T12:40:14;7.97;;;5.18;;
18296;SDS011;18066;52.106;5.534;2023-05-10T12:42:41;8.25;;;5.43;;
18296;SDS011;18066;52.106;5.534;2023-05-10T12:45:10;8.93;;;4.53;;
18296;SDS011;18066;52.106;5.534;2023-05-10T12:47:37;4.90;;;3.55;;
18296;SDS011;18066;52.106;5.534;2023-05-10T12:50:04;5.03;;;3.92;;
18296;SDS011;18066;52.106;5.534;2023-05-10T12:52:32;9.32;;;4.88;;
18296;SDS011;18066;52.106;5.534;2023-05-10T12:55:00;6.70;;;4.43;;
18296;SDS011;18066;52.106;5.534;2023-05-10T12:57:28;6.82;;;4.35;;
18296;SDS011;18066;52.106;5.534;2023-05-10T12:59:55;8.52;;;4.28;;
18296;SDS011;18066;52.106;5.534;2023-05-10T13:02:22;8.40;;;4.57;;
18296;SDS011;18066;52.106;5.534;2023-05-10T13:04:49;6.35;;;2.88;;
18296;SDS011;18066;52.106;5.534;2023-05-10T13:07:16;4.30;;;2.80;;
18296;SDS011;18066;52.106;5.534;2023-05-10T13:09:43;3.78;;;2.05;;
18296;SDS011;18066;52.106;5.534;2023-05-10T13:12:11;3.63;;;2.30;;
18296;SDS011;18066;52.106;5.534;2023-05-10T13:14:38;5.57;;;2.72;;
18296;SDS011;18066;52.106;5.534;2023-05-10T13:17:05;5.47;;;2.70;;
18296;SDS011;18066;52.106;5.534;2023-05-10T13:19:32;5.68;;;2.30;;
18296;SDS011;18066;52.106;5.534;2023-05-10T13:21:59;3.78;;;2.50;;
18296;SDS011;18066;52.106;5.534;2023-05-10T13:24:26;4.38;;;2.88;;
18296;SDS011;18066;52.106;5.534;2023-05-10T13:26:53;6.50;;;3.47;;
18296;SDS011;18066;52.106;5.534;2023-05-10T13:29:21;5.30;;;3.40;;
18296;SDS011;18066;52.106;5.534;2023-05-10T13:31:48;7.00;;;4.63;;
18296;SDS011;18066;52.106;5.534;2023-05-10T13:34:15;7.25;;;5.15;;
18296;SDS011;18066;52.106;5.534;2023-05-10T13:36:41;8.15;;;5.55;;
18296;SDS011;18066;52.106;5.534;2023-05-10T13:39:08;8.70;;;5.95;;
18296;SDS011;18066;52.106;5.534;2023-05-10T13:41:35;6.90;;;6.20;;
18296;SDS011;18066;52.106;5.534;2023-05-10T13:44:02;6.53;;;4.70;;
18296;SDS011;18066;52.106;5.534;2023-05-10T13:46:30;9.20;;;5.03;;
18296;SDS011;18066;52.106;5.534;2023-05-10T13:48:57;8.82;;;5.60;;
18296;SDS011;18066;52.106;5.534;2023-05-10T13:51:24;10.35;;;5.63;;
18296;SDS011;18066;52.106;5.534;2023-05-10T13:53:50;8.27;;;5.38;;
18296;SDS011;18066;52.106;5.534;2023-05-10T13:56:17;10.63;;;5.65;;
18296;SDS011;18066;52.106;5.534;2023-05-10T13:58:44;10.00;;;6.00;;
18296;SDS011;18066;52.106;5.534;2023-05-10T14:01:11;12.90;;;6.43;;
18296;SDS011;18066;52.106;5.534;2023-05-10T14:03:39;9.97;;;5.80;;
18296;SDS011;18066;52.106;5.534;2023-05-10T14:06:06;13.17;;;6.17;;
18296;SDS011;18066;52.106;5.534;2023-05-10T14:08:34;14.03;;;7.13;;
18296;SDS011;18066;52.106;5.534;2023-05-10T14:11:01;13.57;;;5.77;;
18296;SDS011;18066;52.106;5.534;2023-05-10T14:13:28;13.07;;;6.70;;
18296;SDS011;18066;52.106;5.534;2023-05-10T14:15:55;13.33;;;7.20;;
18296;SDS011;18066;52.106;5.534;2023-05-10T14:18:22;9.50;;;6.60;;
18296;SDS011;18066;52.106;5.534;2023-05-10T14:20:50;12.53;;;7.23;;
18296;SDS011;18066;52.106;5.534;2023-05-10T14:23:17;14.17;;;6.83;;
18296;SDS011;18066;52.106;5.534;2023-05-10T14:25:44;13.10;;;6.50;;
18296;SDS011;18066;52.106;5.534;2023-05-10T14:28:11;10.63;;;6.47;;
18296;SDS011;18066;52.106;5.534;2023-05-10T14:30:38;11.10;;;6.40;;
18296;SDS011;18066;52.106;5.534;2023-05-10T14:33:05;9.67;;;6.50;;
18296;SDS011;18066;52.106;5.534;2023-05-10T14:35:32;12.57;;;6.65;;